Girolata — FPOD — position and weather

sailwx.info

Track history (hours):
 
Tides and Currents Weather Stations Pressure Air Temp Water Temp Dewpoint Dewpoint Depression Visibility Wind Speed Wind Dir Waves Ship Positions

Girolata

Last reported at 2017-Mar-28 17:33 UTC. Time now 2017-Mar-28 19:39 UTC.
Position N 43°17' E 005°20'.

Length 177 m; beam 27 m.

Type: Passenger vessel. MMSI: 226245000.

Date/timePositionNaut miles runAvg speedWind from/ knotsBaromVisibWave heightAir tempDewpointWater temp
2017-Mar-28 17:33N 43°17' E 005°20'2 1.7
2017-Mar-28 16:33N 43°19' E 005°22'0 0.0
2017-Mar-28 15:33N 43°19' E 005°22'0 0.0
2017-Mar-28 14:33N 43°19' E 005°22'0 0.0
2017-Mar-28 13:34N 43°19' E 005°22'0 0.0
2017-Mar-28 12:33N 43°19' E 005°22'0 0.0
2017-Mar-28 11:33N 43°19' E 005°22'0 0.0
2017-Mar-28 10:33N 43°19' E 005°22'0 0.0
2017-Mar-28 09:34N 43°19' E 005°22'0 0.0
2017-Mar-28 08:33N 43°19' E 005°22'0 0.0
2017-Mar-28 07:33N 43°19' E 005°22'0 0.0
2017-Mar-28 06:33N 43°19' E 005°22'0 0.0
2017-Mar-28 05:33N 43°19' E 005°22'0 0.1
2017-Mar-28 04:34N 43°19' E 005°22'3 0.1
2017-Mar-26 17:33N 43°16' E 005°20'3 0.7
2017-Mar-26 12:24N 43°19' E 005°22'0 0.0
2017-Mar-26 10:18N 43°19' E 005°22'0 0.0
2017-Mar-26 08:30N 43°19' E 005°22'0 0.0
2017-Mar-26 07:18N 43°19' E 005°22'0 0.0
2017-Mar-26 06:30N 43°19' E 005°22'1 0.7
2017-Mar-26 05:34N 43°18' E 005°22'1 0.0
2017-Mar-24 18:28N 43°17' E 005°20'2 2.0
2017-Mar-24 17:28N 43°19' E 005°22'0 0.0
2017-Mar-24 16:25N 43°19' E 005°22'0 0.0
2017-Mar-24 15:31N 43°19' E 005°22'0 0.0
2017-Mar-24 14:31N 43°19' E 005°22'0 0.0
2017-Mar-24 13:19N 43°19' E 005°22'0 0.0
2017-Mar-24 12:28N 43°19' E 005°22'0 0.0
2017-Mar-24 11:31N 43°19' E 005°22'0 0.0
2017-Mar-24 10:31N 43°19' E 005°22'0 0.0
2017-Mar-24 09:31N 43°19' E 005°22'0 0.0
2017-Mar-24 08:28N 43°19' E 005°22'0 0.0
2017-Mar-24 07:31N 43°19' E 005°22'0 0.0
2017-Mar-24 06:31N 43°19' E 005°22'0 0.5
2017-Mar-24 05:33N 43°18' E 005°22'7 0.2
2017-Mar-22 19:20N 43°12' E 005°18'7 9.3
2017-Mar-22 18:32N 43°19' E 005°22'0 0.0
2017-Mar-22 17:32N 43°19' E 005°22'0 0.0
2017-Mar-22 16:17N 43°19' E 005°22'0 0.0
2017-Mar-22 15:26N 43°19' E 005°22'0 0.0
2017-Mar-22 14:32N 43°19' E 005°22'0 0.0
2017-Mar-22 13:20N 43°19' E 005°22'0 0.0
2017-Mar-22 12:32N 43°19' E 005°22'0 0.0
2017-Mar-22 11:32N 43°19' E 005°22'0 0.0
2017-Mar-22 10:26N 43°19' E 005°22'0 0.0
2017-Mar-22 09:32N 43°19' E 005°22'0 0.0
2017-Mar-22 08:32N 43°19' E 005°22'0 0.0
2017-Mar-22 07:32N 43°19' E 005°22'0 0.0
2017-Mar-22 06:32N 43°19' E 005°22'4 3.9
2017-Mar-22 05:33N 43°16' E 005°18'2 0.1
2017-Mar-20 19:33N 43°13' E 005°18'6 5.8
2017-Mar-20 18:33N 43°19' E 005°22'0 0.0
2017-Mar-20 17:27N 43°19' E 005°22'0 0.0
2017-Mar-20 16:33N 43°19' E 005°22'0 0.0
2017-Mar-20 15:33N 43°19' E 005°22'0 0.0
2017-Mar-20 14:33N 43°19' E 005°22'0 0.0
2017-Mar-20 13:30N 43°19' E 005°22'0 0.0
2017-Mar-20 12:33N 43°19' E 005°22'0 0.0
2017-Mar-20 11:27N 43°19' E 005°22'0 0.0
2017-Mar-20 10:27N 43°19' E 005°22'0 0.0
2017-Mar-20 09:27N 43°19' E 005°22'0 0.0
2017-Mar-20 08:33N 43°19' E 005°22'0 0.0
2017-Mar-20 07:33N 43°19' E 005°22'0 0.0
2017-Mar-20 06:33N 43°19' E 005°22'0 0.1
2017-Mar-20 05:34N 43°19' E 005°22'4 0.1
2017-Mar-18 18:33N 43°15' E 005°19'4 4.0
2017-Mar-18 17:33N 43°19' E 005°22'  
Track history (hours):
 
Tides and Currents Weather Stations Pressure Air Temp Water Temp Dewpoint Dewpoint Depression Visibility Wind Speed Wind Dir Waves Ship Positions

Girolata

Last reported at 2017-Mar-28 17:33 UTC. Time now 2017-Mar-28 19:39 UTC.
Position N 43°17' E 005°20'.

Length 177 m; beam 27 m.

Type: Passenger vessel. MMSI: 226245000.

Date/timePositionNaut miles runAvg speedWind from/ knotsBaromVisibWave heightAir tempDewpointWater temp
2017-Mar-28 17:33N 43°17' E 005°20'2 1.7
2017-Mar-28 16:33N 43°19' E 005°22'0 0.0
2017-Mar-28 15:33N 43°19' E 005°22'0 0.0
2017-Mar-28 14:33N 43°19' E 005°22'0 0.0
2017-Mar-28 13:34N 43°19' E 005°22'0 0.0
2017-Mar-28 12:33N 43°19' E 005°22'0 0.0
2017-Mar-28 11:33N 43°19' E 005°22'0 0.0
2017-Mar-28 10:33N 43°19' E 005°22'0 0.0
2017-Mar-28 09:34N 43°19' E 005°22'0 0.0
2017-Mar-28 08:33N 43°19' E 005°22'0 0.0
2017-Mar-28 07:33N 43°19' E 005°22'0 0.0
2017-Mar-28 06:33N 43°19' E 005°22'0 0.0
2017-Mar-28 05:33N 43°19' E 005°22'0 0.1
2017-Mar-28 04:34N 43°19' E 005°22'3 0.1
2017-Mar-26 17:33N 43°16' E 005°20'3 0.7
2017-Mar-26 12:24N 43°19' E 005°22'0 0.0
2017-Mar-26 10:18N 43°19' E 005°22'0 0.0
2017-Mar-26 08:30N 43°19' E 005°22'0 0.0
2017-Mar-26 07:18N 43°19' E 005°22'0 0.0
2017-Mar-26 06:30N 43°19' E 005°22'1 0.7
2017-Mar-26 05:34N 43°18' E 005°22'1 0.0
2017-Mar-24 18:28N 43°17' E 005°20'2 2.0
2017-Mar-24 17:28N 43°19' E 005°22'0 0.0
2017-Mar-24 16:25N 43°19' E 005°22'0 0.0
2017-Mar-24 15:31N 43°19' E 005°22'0 0.0
2017-Mar-24 14:31N 43°19' E 005°22'0 0.0
2017-Mar-24 13:19N 43°19' E 005°22'0 0.0
2017-Mar-24 12:28N 43°19' E 005°22'0 0.0
2017-Mar-24 11:31N 43°19' E 005°22'0 0.0
2017-Mar-24 10:31N 43°19' E 005°22'0 0.0
2017-Mar-24 09:31N 43°19' E 005°22'0 0.0
2017-Mar-24 08:28N 43°19' E 005°22'0 0.0
2017-Mar-24 07:31N 43°19' E 005°22'0 0.0
2017-Mar-24 06:31N 43°19' E 005°22'0 0.5
2017-Mar-24 05:33N 43°18' E 005°22'7 0.2
2017-Mar-22 19:20N 43°12' E 005°18'7 9.3
2017-Mar-22 18:32N 43°19' E 005°22'0 0.0
2017-Mar-22 17:32N 43°19' E 005°22'0 0.0
2017-Mar-22 16:17N 43°19' E 005°22'0 0.0
2017-Mar-22 15:26N 43°19' E 005°22'0 0.0
2017-Mar-22 14:32N 43°19' E 005°22'0 0.0
2017-Mar-22 13:20N 43°19' E 005°22'0 0.0
2017-Mar-22 12:32N 43°19' E 005°22'0 0.0
2017-Mar-22 11:32N 43°19' E 005°22'0 0.0
2017-Mar-22 10:26N 43°19' E 005°22'0 0.0
2017-Mar-22 09:32N 43°19' E 005°22'0 0.0
2017-Mar-22 08:32N 43°19' E 005°22'0 0.0
2017-Mar-22 07:32N 43°19' E 005°22'0 0.0
2017-Mar-22 06:32N 43°19' E 005°22'4 3.9
2017-Mar-22 05:33N 43°16' E 005°18'2 0.1
2017-Mar-20 19:33N 43°13' E 005°18'6 5.8
2017-Mar-20 18:33N 43°19' E 005°22'0 0.0
2017-Mar-20 17:27N 43°19' E 005°22'0 0.0
2017-Mar-20 16:33N 43°19' E 005°22'0 0.0
2017-Mar-20 15:33N 43°19' E 005°22'0 0.0
2017-Mar-20 14:33N 43°19' E 005°22'0 0.0
2017-Mar-20 13:30N 43°19' E 005°22'0 0.0
2017-Mar-20 12:33N 43°19' E 005°22'0 0.0
2017-Mar-20 11:27N 43°19' E 005°22'0 0.0
2017-Mar-20 10:27N 43°19' E 005°22'0 0.0
2017-Mar-20 09:27N 43°19' E 005°22'0 0.0
2017-Mar-20 08:33N 43°19' E 005°22'0 0.0
2017-Mar-20 07:33N 43°19' E 005°22'0 0.0
2017-Mar-20 06:33N 43°19' E 005°22'0 0.1
2017-Mar-20 05:34N 43°19' E 005°22'4 0.1
2017-Mar-18 18:33N 43°15' E 005°19'4 4.0
2017-Mar-18 17:33N 43°19' E 005°22'  

Dump ship's entire track history